sensor_id;sensor_type;location;lat;lon;timestamp;temperature;humidity
80824;SHT35;70538;59.122;37.876;2023-12-20T00:01:18;1.99;80.06
80824;SHT35;70538;59.122;37.876;2023-12-20T00:03:46;2.06;80.04
80824;SHT35;70538;59.122;37.876;2023-12-20T00:06:17;2.11;79.84
80824;SHT35;70538;59.122;37.876;2023-12-20T00:08:44;2.17;79.76
80824;SHT35;70538;59.122;37.876;2023-12-20T00:11:11;2.17;79.68
80824;SHT35;70538;59.122;37.876;2023-12-20T00:13:39;2.23;79.63
80824;SHT35;70538;59.122;37.876;2023-12-20T00:16:06;2.24;79.51
80824;SHT35;70538;59.122;37.876;2023-12-20T00:18:34;2.26;79.43
80824;SHT35;70538;59.122;37.876;2023-12-20T00:21:02;2.27;79.44
80824;SHT35;70538;59.122;37.876;2023-12-20T00:23:30;2.27;79.39
80824;SHT35;70538;59.122;37.876;2023-12-20T00:25:57;2.24;79.40
80824;SHT35;70538;59.122;37.876;2023-12-20T00:28:25;2.20;79.39
80824;SHT35;70538;59.122;37.876;2023-12-20T00:30:52;2.23;79.26
80824;SHT35;70538;59.122;37.876;2023-12-20T00:33:20;2.20;79.14
80824;SHT35;70538;59.122;37.876;2023-12-20T00:35:47;2.16;79.02
80824;SHT35;70538;59.122;37.876;2023-12-20T00:38:15;2.09;79.02
80824;SHT35;70538;59.122;37.876;2023-12-20T00:40:42;2.02;79.12
80824;SHT35;70538;59.122;37.876;2023-12-20T00:43:10;1.95;79.07
80824;SHT35;70538;59.122;37.876;2023-12-20T00:45:37;1.82;79.13
80824;SHT35;70538;59.122;37.876;2023-12-20T00:48:05;1.68;79.28
80824;SHT35;70538;59.122;37.876;2023-12-20T00:50:32;1.56;79.50
80824;SHT35;70538;59.122;37.876;2023-12-20T00:53:02;1.45;79.76
80824;SHT35;70538;59.122;37.876;2023-12-20T00:55:30;1.41;79.95
80824;SHT35;70538;59.122;37.876;2023-12-20T00:57:57;1.34;80.13
80824;SHT35;70538;59.122;37.876;2023-12-20T01:00:26;1.30;80.38
80824;SHT35;70538;59.122;37.876;2023-12-20T01:02:54;1.28;80.50
80824;SHT35;70538;59.122;37.876;2023-12-20T01:05:21;1.26;80.60
80824;SHT35;70538;59.122;37.876;2023-12-20T01:07:51;1.22;80.65
80824;SHT35;70538;59.122;37.876;2023-12-20T01:10:19;1.17;80.80
80824;SHT35;70538;59.122;37.876;2023-12-20T01:12:47;1.15;81.01
80824;SHT35;70538;59.122;37.876;2023-12-20T01:15:14;1.15;81.21
80824;SHT35;70538;59.122;37.876;2023-12-20T01:17:42;1.13;81.38
80824;SHT35;70538;59.122;37.876;2023-12-20T01:20:09;1.15;81.48
80824;SHT35;70538;59.122;37.876;2023-12-20T01:22:37;1.13;81.58
80824;SHT35;70538;59.122;37.876;2023-12-20T01:25:05;1.13;81.64
80824;SHT35;70538;59.122;37.876;2023-12-20T01:27:32;1.13;81.72
80824;SHT35;70538;59.122;37.876;2023-12-20T01:29:59;1.12;81.89
80824;SHT35;70538;59.122;37.876;2023-12-20T01:32:27;1.15;81.93
80824;SHT35;70538;59.122;37.876;2023-12-20T01:34:54;1.16;81.83
80824;SHT35;70538;59.122;37.876;2023-12-20T01:37:27;1.17;81.80
80824;SHT35;70538;59.122;37.876;2023-12-20T01:39:56;1.19;81.72
80824;SHT35;70538;59.122;37.876;2023-12-20T01:42:24;1.17;81.61
80824;SHT35;70538;59.122;37.876;2023-12-20T01:44:51;1.13;81.67
80824;SHT35;70538;59.122;37.876;2023-12-20T01:47:18;1.12;81.76
80824;SHT35;70538;59.122;37.876;2023-12-20T01:49:47;1.13;81.78
80824;SHT35;70538;59.122;37.876;2023-12-20T01:52:14;1.16;81.85
80824;SHT35;70538;59.122;37.876;2023-12-20T01:54:42;1.13;82.04
80824;SHT35;70538;59.122;37.876;2023-12-20T01:57:09;1.19;82.11
80824;SHT35;70538;59.122;37.876;2023-12-20T01:59:37;1.23;82.06
80824;SHT35;70538;59.122;37.876;2023-12-20T02:02:06;1.24;82.02
80824;SHT35;70538;59.122;37.876;2023-12-20T02:04:35;1.26;82.03
80824;SHT35;70538;59.122;37.876;2023-12-20T02:07:03;1.33;81.99
80824;SHT35;70538;59.122;37.876;2023-12-20T02:09:33;1.33;81.78
80824;SHT35;70538;59.122;37.876;2023-12-20T02:12:08;1.34;81.72
80824;SHT35;70538;59.122;37.876;2023-12-20T02:14:35;1.37;81.59
80824;SHT35;70538;59.122;37.876;2023-12-20T02:17:04;1.40;81.55
80824;SHT35;70538;59.122;37.876;2023-12-20T02:19:31;1.38;81.24
80824;SHT35;70538;59.122;37.876;2023-12-20T02:22:09;1.38;80.98
80824;SHT35;70538;59.122;37.876;2023-12-20T02:24:36;1.33;80.68
80824;SHT35;70538;59.122;37.876;2023-12-20T02:27:05;1.28;80.41
80824;SHT35;70538;59.122;37.876;2023-12-20T02:29:33;1.22;80.31
80824;SHT35;70538;59.122;37.876;2023-12-20T02:32:01;1.13;80.32
80824;SHT35;70538;59.122;37.876;2023-12-20T02:34:28;1.03;80.37
80824;SHT35;70538;59.122;37.876;2023-12-20T02:36:56;1.01;80.71
80824;SHT35;70538;59.122;37.876;2023-12-20T02:39:24;0.95;80.93
80824;SHT35;70538;59.122;37.876;2023-12-20T02:41:51;0.95;81.12
80824;SHT35;70538;59.122;37.876;2023-12-20T02:44:20;0.97;81.13
80824;SHT35;70538;59.122;37.876;2023-12-20T02:46:49;1.04;81.03
80824;SHT35;70538;59.122;37.876;2023-12-20T02:49:17;1.06;81.07
80824;SHT35;70538;59.122;37.876;2023-12-20T02:51:44;1.09;80.94
80824;SHT35;70538;59.122;37.876;2023-12-20T02:54:12;1.10;80.77
80824;SHT35;70538;59.122;37.876;2023-12-20T02:56:41;1.13;80.67
80824;SHT35;70538;59.122;37.876;2023-12-20T02:59:11;1.17;80.74
80824;SHT35;70538;59.122;37.876;2023-12-20T03:01:42;1.20;80.66
80824;SHT35;70538;59.122;37.876;2023-12-20T03:04:10;1.23;80.59
80824;SHT35;70538;59.122;37.876;2023-12-20T03:06:38;1.26;80.42
80824;SHT35;70538;59.122;37.876;2023-12-20T03:09:06;1.27;80.23
80824;SHT35;70538;59.122;37.876;2023-12-20T03:11:33;1.28;80.10
80824;SHT35;70538;59.122;37.876;2023-12-20T03:14:01;1.33;80.01
80824;SHT35;70538;59.122;37.876;2023-12-20T03:16:31;1.35;79.90
80824;SHT35;70538;59.122;37.876;2023-12-20T03:19:02;1.35;79.89
80824;SHT35;70538;59.122;37.876;2023-12-20T03:21:32;1.40;79.81
80824;SHT35;70538;59.122;37.876;2023-12-20T03:24:00;1.43;79.79
80824;SHT35;70538;59.122;37.876;2023-12-20T03:26:28;1.43;79.65
80824;SHT35;70538;59.122;37.876;2023-12-20T03:28:55;1.43;79.65
80824;SHT35;70538;59.122;37.876;2023-12-20T03:31:22;1.43;79.67
80824;SHT35;70538;59.122;37.876;2023-12-20T03:33:50;1.44;79.72
80824;SHT35;70538;59.122;37.876;2023-12-20T03:36:19;1.44;79.84
80824;SHT35;70538;59.122;37.876;2023-12-20T03:38:47;1.47;79.87
80824;SHT35;70538;59.122;37.876;2023-12-20T03:41:14;1.52;79.83
80824;SHT35;70538;59.122;37.876;2023-12-20T03:43:42;1.51;79.82
80824;SHT35;70538;59.122;37.876;2023-12-20T03:46:10;1.52;79.90
80824;SHT35;70538;59.122;37.876;2023-12-20T03:48:38;1.52;79.95
80824;SHT35;70538;59.122;37.876;2023-12-20T03:51:05;1.51;79.98
80824;SHT35;70538;59.122;37.876;2023-12-20T03:53:33;1.58;79.90
80824;SHT35;70538;59.122;37.876;2023-12-20T03:56:01;1.59;79.73
80824;SHT35;70538;59.122;37.876;2023-12-20T03:58:37;1.64;79.68
80824;SHT35;70538;59.122;37.876;2023-12-20T04:01:09;1.69;79.48
80824;SHT35;70538;59.122;37.876;2023-12-20T04:03:37;1.72;79.27
80824;SHT35;70538;59.122;37.876;2023-12-20T04:06:05;1.72;78.99
80824;SHT35;70538;59.122;37.876;2023-12-20T04:08:32;1.73;78.98
80824;SHT35;70538;59.122;37.876;2023-12-20T04:11:01;1.73;78.74
80824;SHT35;70538;59.122;37.876;2023-12-20T04:13:30;1.69;78.66
80824;SHT35;70538;59.122;37.876;2023-12-20T04:15:57;1.71;78.61
80824;SHT35;70538;59.122;37.876;2023-12-20T04:18:25;1.71;78.64
80824;SHT35;70538;59.122;37.876;2023-12-20T04:20:53;1.71;78.53
80824;SHT35;70538;59.122;37.876;2023-12-20T04:23:20;1.66;78.51
80824;SHT35;70538;59.122;37.876;2023-12-20T04:25:47;1.68;78.42
80824;SHT35;70538;59.122;37.876;2023-12-20T04:28:15;1.69;78.35
80824;SHT35;70538;59.122;37.876;2023-12-20T04:30:42;1.72;78.29
80824;SHT35;70538;59.122;37.876;2023-12-20T04:33:10;1.76;78.38
80824;SHT35;70538;59.122;37.876;2023-12-20T04:35:40;1.75;78.41
80824;SHT35;70538;59.122;37.876;2023-12-20T04:38:09;1.83;78.34
80824;SHT35;70538;59.122;37.876;2023-12-20T04:40:37;1.86;78.16
80824;SHT35;70538;59.122;37.876;2023-12-20T04:43:08;1.87;77.93
80824;SHT35;70538;59.122;37.876;2023-12-20T04:45:39;1.90;77.92
80824;SHT35;70538;59.122;37.876;2023-12-20T04:48:10;1.92;77.66
80824;SHT35;70538;59.122;37.876;2023-12-20T04:50:37;1.95;77.66
80824;SHT35;70538;59.122;37.876;2023-12-20T04:53:05;1.95;77.47
80824;SHT35;70538;59.122;37.876;2023-12-20T04:55:32;1.93;77.20
80824;SHT35;70538;59.122;37.876;2023-12-20T04:58:03;1.92;77.06
80824;SHT35;70538;59.122;37.876;2023-12-20T05:00:31;1.93;77.03
80824;SHT35;70538;59.122;37.876;2023-12-20T05:02:58;1.93;77.15
80824;SHT35;70538;59.122;37.876;2023-12-20T05:05:26;1.92;77.15
80824;SHT35;70538;59.122;37.876;2023-12-20T05:07:54;1.98;77.10
80824;SHT35;70538;59.122;37.876;2023-12-20T05:10:24;1.96;77.04
80824;SHT35;70538;59.122;37.876;2023-12-20T05:12:51;1.98;77.01
80824;SHT35;70538;59.122;37.876;2023-12-20T05:15:18;2.00;76.87
80824;SHT35;70538;59.122;37.876;2023-12-20T05:17:46;2.03;76.81
80824;SHT35;70538;59.122;37.876;2023-12-20T05:20:15;2.03;76.72
80824;SHT35;70538;59.122;37.876;2023-12-20T05:22:43;2.07;76.40
80824;SHT35;70538;59.122;37.876;2023-12-20T05:25:14;2.10;76.33
80824;SHT35;70538;59.122;37.876;2023-12-20T05:27:45;2.13;76.40
80824;SHT35;70538;59.122;37.876;2023-12-20T05:30:22;2.14;75.75
80824;SHT35;70538;59.122;37.876;2023-12-20T05:33:04;2.19;75.79
80824;SHT35;70538;59.122;37.876;2023-12-20T05:35:31;2.17;75.76
80824;SHT35;70538;59.122;37.876;2023-12-20T05:37:59;2.21;75.37
80824;SHT35;70538;59.122;37.876;2023-12-20T05:40:26;2.23;74.74
80824;SHT35;70538;59.122;37.876;2023-12-20T05:42:53;2.21;74.57
80824;SHT35;70538;59.122;37.876;2023-12-20T05:45:21;2.19;74.69
80824;SHT35;70538;59.122;37.876;2023-12-20T05:47:48;2.17;74.55
80824;SHT35;70538;59.122;37.876;2023-12-20T05:50:16;2.13;74.59
80824;SHT35;70538;59.122;37.876;2023-12-20T05:52:44;2.06;74.65
80824;SHT35;70538;59.122;37.876;2023-12-20T05:55:12;2.05;74.70
80824;SHT35;70538;59.122;37.876;2023-12-20T05:57:40;2.00;74.77
80824;SHT35;70538;59.122;37.876;2023-12-20T06:00:09;1.98;74.97
80824;SHT35;70538;59.122;37.876;2023-12-20T06:02:37;1.98;75.02
80824;SHT35;70538;59.122;37.876;2023-12-20T06:05:04;2.00;74.95
80824;SHT35;70538;59.122;37.876;2023-12-20T06:07:32;2.02;74.90
80824;SHT35;70538;59.122;37.876;2023-12-20T06:10:04;2.02;74.85
80824;SHT35;70538;59.122;37.876;2023-12-20T06:12:33;2.06;74.79
80824;SHT35;70538;59.122;37.876;2023-12-20T06:15:03;2.03;74.96
80824;SHT35;70538;59.122;37.876;2023-12-20T06:17:30;2.07;74.80
80824;SHT35;70538;59.122;37.876;2023-12-20T06:19:58;2.11;74.85
80824;SHT35;70538;59.122;37.876;2023-12-20T06:22:26;2.11;74.80
80824;SHT35;70538;59.122;37.876;2023-12-20T06:24:56;2.13;74.83
80824;SHT35;70538;59.122;37.876;2023-12-20T06:27:24;2.11;74.95
80824;SHT35;70538;59.122;37.876;2023-12-20T06:29:51;2.13;74.87
80824;SHT35;70538;59.122;37.876;2023-12-20T06:32:20;2.19;74.91
80824;SHT35;70538;59.122;37.876;2023-12-20T06:34:47;2.23;74.80
80824;SHT35;70538;59.122;37.876;2023-12-20T06:37:21;2.27;74.77
80824;SHT35;70538;59.122;37.876;2023-12-20T06:40:22;2.33;74.65
80824;SHT35;70538;59.122;37.876;2023-12-20T06:42:49;2.37;74.42
80824;SHT35;70538;59.122;37.876;2023-12-20T06:45:31;2.41;74.15
80824;SHT35;70538;59.122;37.876;2023-12-20T06:47:58;2.45;73.97
80824;SHT35;70538;59.122;37.876;2023-12-20T06:50:26;2.47;73.89
80824;SHT35;70538;59.122;37.876;2023-12-20T06:52:54;2.49;73.71
80824;SHT35;70538;59.122;37.876;2023-12-20T06:55:21;2.42;73.70
80824;SHT35;70538;59.122;37.876;2023-12-20T06:57:50;2.40;73.68
80824;SHT35;70538;59.122;37.876;2023-12-20T07:00:17;2.37;73.59
80824;SHT35;70538;59.122;37.876;2023-12-20T07:02:47;2.33;73.55
80824;SHT35;70538;59.122;37.876;2023-12-20T07:05:16;2.28;73.71
80824;SHT35;70538;59.122;37.876;2023-12-20T07:07:44;2.23;73.89
80824;SHT35;70538;59.122;37.876;2023-12-20T07:10:12;2.20;73.92
80824;SHT35;70538;59.122;37.876;2023-12-20T07:12:39;2.19;73.89
80824;SHT35;70538;59.122;37.876;2023-12-20T07:15:07;2.19;73.88
80824;SHT35;70538;59.122;37.876;2023-12-20T07:17:34;2.19;74.00
80824;SHT35;70538;59.122;37.876;2023-12-20T07:20:02;2.19;74.14
80824;SHT35;70538;59.122;37.876;2023-12-20T07:22:33;2.16;74.29
80824;SHT35;70538;59.122;37.876;2023-12-20T07:25:01;2.14;74.38
80824;SHT35;70538;59.122;37.876;2023-12-20T07:27:29;2.17;74.59
80824;SHT35;70538;59.122;37.876;2023-12-20T07:29:56;2.24;74.53
80824;SHT35;70538;59.122;37.876;2023-12-20T07:32:24;2.23;74.48
80824;SHT35;70538;59.122;37.876;2023-12-20T07:34:51;2.27;74.33
80824;SHT35;70538;59.122;37.876;2023-12-20T07:37:19;2.37;74.45
80824;SHT35;70538;59.122;37.876;2023-12-20T07:39:46;2.42;74.23
80824;SHT35;70538;59.122;37.876;2023-12-20T07:42:14;2.45;74.00
80824;SHT35;70538;59.122;37.876;2023-12-20T07:44:43;2.47;73.92
80824;SHT35;70538;59.122;37.876;2023-12-20T07:47:11;2.51;73.72
80824;SHT35;70538;59.122;37.876;2023-12-20T07:49:42;2.54;73.55
80824;SHT35;70538;59.122;37.876;2023-12-20T07:52:10;2.58;73.39
80824;SHT35;70538;59.122;37.876;2023-12-20T07:54:37;2.58;73.31
80824;SHT35;70538;59.122;37.876;2023-12-20T07:57:05;2.61;73.34
80824;SHT35;70538;59.122;37.876;2023-12-20T07:59:32;2.62;73.39
80824;SHT35;70538;59.122;37.876;2023-12-20T08:02:00;2.66;73.19
80824;SHT35;70538;59.122;37.876;2023-12-20T08:04:27;2.71;73.03
80824;SHT35;70538;59.122;37.876;2023-12-20T08:06:55;2.78;72.64
80824;SHT35;70538;59.122;37.876;2023-12-20T08:09:41;2.82;72.38
80824;SHT35;70538;59.122;37.876;2023-12-20T08:12:10;2.88;72.49
80824;SHT35;70538;59.122;37.876;2023-12-20T08:14:38;3.14;71.66
80824;SHT35;70538;59.122;37.876;2023-12-20T08:17:05;3.31;70.85
80824;SHT35;70538;59.122;37.876;2023-12-20T08:19:33;3.58;70.23
80824;SHT35;70538;59.122;37.876;2023-12-20T08:22:00;3.99;68.81
80824;SHT35;70538;59.122;37.876;2023-12-20T08:24:27;4.11;66.84
80824;SHT35;70538;59.122;37.876;2023-12-20T08:26:55;3.97;66.49
80824;SHT35;70538;59.122;37.876;2023-12-20T08:29:22;3.81;67.27
80824;SHT35;70538;59.122;37.876;2023-12-20T08:31:53;3.96;67.13
80824;SHT35;70538;59.122;37.876;2023-12-20T08:34:21;4.40;66.64
80824;SHT35;70538;59.122;37.876;2023-12-20T08:36:49;4.83;64.75
80824;SHT35;70538;59.122;37.876;2023-12-20T08:39:17;5.30;63.44
80824;SHT35;70538;59.122;37.876;2023-12-20T08:41:44;5.66;60.88
80824;SHT35;70538;59.122;37.876;2023-12-20T08:44:12;5.83;60.00
80824;SHT35;70538;59.122;37.876;2023-12-20T08:46:40;5.92;59.88
80824;SHT35;70538;59.122;37.876;2023-12-20T08:49:07;6.02;58.24
80824;SHT35;70538;59.122;37.876;2023-12-20T08:51:37;5.89;58.67
80824;SHT35;70538;59.122;37.876;2023-12-20T08:54:08;5.88;59.31
80824;SHT35;70538;59.122;37.876;2023-12-20T08:56:36;5.96;58.46
80824;SHT35;70538;59.122;37.876;2023-12-20T08:59:04;6.06;58.79
80824;SHT35;70538;59.122;37.876;2023-12-20T09:01:31;6.28;57.99
80824;SHT35;70538;59.122;37.876;2023-12-20T09:03:59;6.68;57.59
80824;SHT35;70538;59.122;37.876;2023-12-20T09:06:26;6.95;56.43
80824;SHT35;70538;59.122;37.876;2023-12-20T09:08:54;6.83;56.40
80824;SHT35;70538;59.122;37.876;2023-12-20T09:11:21;6.68;56.45
80824;SHT35;70538;59.122;37.876;2023-12-20T09:13:49;6.78;55.68
80824;SHT35;70538;59.122;37.876;2023-12-20T09:16:17;6.45;55.56
80824;SHT35;70538;59.122;37.876;2023-12-20T09:18:44;6.33;56.64
80824;SHT35;70538;59.122;37.876;2023-12-20T09:21:12;5.99;56.61
80824;SHT35;70538;59.122;37.876;2023-12-20T09:23:39;5.61;57.73
80824;SHT35;70538;59.122;37.876;2023-12-20T09:26:07;5.58;58.69
80824;SHT35;70538;59.122;37.876;2023-12-20T09:28:34;5.90;58.48
80824;SHT35;70538;59.122;37.876;2023-12-20T09:31:04;6.11;56.87
80824;SHT35;70538;59.122;37.876;2023-12-20T09:33:33;6.11;56.15
80824;SHT35;70538;59.122;37.876;2023-12-20T09:36:04;5.99;56.61
80824;SHT35;70538;59.122;37.876;2023-12-20T09:38:31;6.05;56.58
80824;SHT35;70538;59.122;37.876;2023-12-20T09:40:59;5.96;55.87
80824;SHT35;70538;59.122;37.876;2023-12-20T09:43:28;5.96;55.24
80824;SHT35;70538;59.122;37.876;2023-12-20T09:45:59;5.79;55.63
80824;SHT35;70538;59.122;37.876;2023-12-20T09:48:27;5.75;56.89
80824;SHT35;70538;59.122;37.876;2023-12-20T09:50:55;6.02;55.19
80824;SHT35;70538;59.122;37.876;2023-12-20T09:53:22;6.18;55.60
80824;SHT35;70538;59.122;37.876;2023-12-20T09:55:59;6.45;55.43
80824;SHT35;70538;59.122;37.876;2023-12-20T09:58:27;6.51;53.95
80824;SHT35;70538;59.122;37.876;2023-12-20T10:00:55;6.34;54.29
80824;SHT35;70538;59.122;37.876;2023-12-20T10:03:24;6.54;54.38
80824;SHT35;70538;59.122;37.876;2023-12-20T10:05:52;6.59;52.72
80824;SHT35;70538;59.122;37.876;2023-12-20T10:08:40;6.54;53.46
80824;SHT35;70538;59.122;37.876;2023-12-20T10:11:07;6.59;53.14
80824;SHT35;70538;59.122;37.876;2023-12-20T10:13:38;6.90;52.38
80824;SHT35;70538;59.122;37.876;2023-12-20T10:16:08;6.85;51.56
80824;SHT35;70538;59.122;37.876;2023-12-20T10:18:39;6.48;52.43
80824;SHT35;70538;59.122;37.876;2023-12-20T10:21:09;6.09;53.13
80824;SHT35;70538;59.122;37.876;2023-12-20T10:23:37;5.66;54.01
80824;SHT35;70538;59.122;37.876;2023-12-20T10:26:06;5.24;55.23
80824;SHT35;70538;59.122;37.876;2023-12-20T10:28:39;4.87;56.44
80824;SHT35;70538;59.122;37.876;2023-12-20T10:31:06;4.61;57.22
80824;SHT35;70538;59.122;37.876;2023-12-20T10:33:34;4.42;57.74
80824;SHT35;70538;59.122;37.876;2023-12-20T10:36:02;4.24;58.55
80824;SHT35;70538;59.122;37.876;2023-12-20T10:38:30;4.10;58.43
80824;SHT35;70538;59.122;37.876;2023-12-20T10:40:58;3.97;58.91
80824;SHT35;70538;59.122;37.876;2023-12-20T10:43:28;3.87;59.21
80824;SHT35;70538;59.122;37.876;2023-12-20T10:45:56;3.82;59.39
80824;SHT35;70538;59.122;37.876;2023-12-20T10:48:24;3.74;59.75
80824;SHT35;70538;59.122;37.876;2023-12-20T10:50:57;3.65;60.14
80824;SHT35;70538;59.122;37.876;2023-12-20T10:53:25;3.61;60.13
80824;SHT35;70538;59.122;37.876;2023-12-20T10:55:52;3.59;60.49
80824;SHT35;70538;59.122;37.876;2023-12-20T10:58:22;3.52;60.52
80824;SHT35;70538;59.122;37.876;2023-12-20T11:00:51;3.51;60.62
80824;SHT35;70538;59.122;37.876;2023-12-20T11:03:23;3.44;60.43
80824;SHT35;70538;59.122;37.876;2023-12-20T11:05:59;3.41;60.68
80824;SHT35;70538;59.122;37.876;2023-12-20T11:08:42;3.35;60.89
80824;SHT35;70538;59.122;37.876;2023-12-20T11:11:33;3.35;60.91
80824;SHT35;70538;59.122;37.876;2023-12-20T11:16:33;3.26;61.36
80824;SHT35;70538;59.122;37.876;2023-12-20T11:19:17;3.24;61.56
80824;SHT35;70538;59.122;37.876;2023-12-20T11:21:50;3.21;61.46
80824;SHT35;70538;59.122;37.876;2023-12-20T11:24:21;3.19;61.64
80824;SHT35;70538;59.122;37.876;2023-12-20T11:26:48;3.16;61.70
80824;SHT35;70538;59.122;37.876;2023-12-20T11:29:34;3.11;61.99
80824;SHT35;70538;59.122;37.876;2023-12-20T11:32:03;3.09;62.13
80824;SHT35;70538;59.122;37.876;2023-12-20T11:34:31;3.06;62.20
80824;SHT35;70538;59.122;37.876;2023-12-20T11:36:59;3.02;62.31
80824;SHT35;70538;59.122;37.876;2023-12-20T11:39:27;2.97;62.54
80824;SHT35;70538;59.122;37.876;2023-12-20T11:41:56;2.96;62.64
80824;SHT35;70538;59.122;37.876;2023-12-20T11:44:25;2.92;62.39
80824;SHT35;70538;59.122;37.876;2023-12-20T11:46:52;2.95;62.40
80824;SHT35;70538;59.122;37.876;2023-12-20T11:49:24;2.93;62.33
80824;SHT35;70538;59.122;37.876;2023-12-20T11:51:52;2.93;62.56
80824;SHT35;70538;59.122;37.876;2023-12-20T11:54:20;2.93;62.73
80824;SHT35;70538;59.122;37.876;2023-12-20T11:56:48;2.88;62.79
80824;SHT35;70538;59.122;37.876;2023-12-20T11:59:16;2.85;63.05
80824;SHT35;70538;59.122;37.876;2023-12-20T12:01:50;2.86;63.09
80824;SHT35;70538;59.122;37.876;2023-12-20T12:04:18;2.85;62.98
80824;SHT35;70538;59.122;37.876;2023-12-20T12:06:47;2.85;63.07
80824;SHT35;70538;59.122;37.876;2023-12-20T12:09:15;2.82;62.99
80824;SHT35;70538;59.122;37.876;2023-12-20T12:11:44;2.83;63.05
80824;SHT35;70538;59.122;37.876;2023-12-20T12:14:11;2.86;62.85
80824;SHT35;70538;59.122;37.876;2023-12-20T12:16:41;2.86;63.00
80824;SHT35;70538;59.122;37.876;2023-12-20T12:19:19;2.79;62.95
80824;SHT35;70538;59.122;37.876;2023-12-20T12:21:47;2.83;62.96
80824;SHT35;70538;59.122;37.876;2023-12-20T12:24:19;2.82;62.82
80824;SHT35;70538;59.122;37.876;2023-12-20T12:26:50;2.83;62.90
80824;SHT35;70538;59.122;37.876;2023-12-20T12:29:18;2.82;62.99
80824;SHT35;70538;59.122;37.876;2023-12-20T12:31:46;2.85;62.93
80824;SHT35;70538;59.122;37.876;2023-12-20T12:34:14;2.83;62.79
80824;SHT35;70538;59.122;37.876;2023-12-20T12:36:42;2.85;62.83
80824;SHT35;70538;59.122;37.876;2023-12-20T12:39:14;2.83;62.83
80824;SHT35;70538;59.122;37.876;2023-12-20T12:41:42;2.86;62.50
80824;SHT35;70538;59.122;37.876;2023-12-20T12:44:09;2.86;62.71
80824;SHT35;70538;59.122;37.876;2023-12-20T12:46:45;2.86;62.80
80824;SHT35;70538;59.122;37.876;2023-12-20T12:49:13;2.86;62.79
80824;SHT35;70538;59.122;37.876;2023-12-20T12:51:40;2.85;62.60
80824;SHT35;70538;59.122;37.876;2023-12-20T12:54:08;2.83;62.64
80824;SHT35;70538;59.122;37.876;2023-12-20T12:56:36;2.85;62.64
80824;SHT35;70538;59.122;37.876;2023-12-20T12:59:04;2.88;62.64
80824;SHT35;70538;59.122;37.876;2023-12-20T13:01:32;2.86;62.79
80824;SHT35;70538;59.122;37.876;2023-12-20T13:04:00;2.91;62.75
80824;SHT35;70538;59.122;37.876;2023-12-20T13:06:30;2.89;62.48
80824;SHT35;70538;59.122;37.876;2023-12-20T13:08:57;2.89;62.57
80824;SHT35;70538;59.122;37.876;2023-12-20T13:11:27;2.92;62.64
80824;SHT35;70538;59.122;37.876;2023-12-20T13:13:55;2.91;62.74
80824;SHT35;70538;59.122;37.876;2023-12-20T13:16:22;2.89;62.46
80824;SHT35;70538;59.122;37.876;2023-12-20T13:18:50;2.89;62.61
80824;SHT35;70538;59.122;37.876;2023-12-20T13:21:17;2.89;62.64
80824;SHT35;70538;59.122;37.876;2023-12-20T13:23:45;2.89;62.55
80824;SHT35;70538;59.122;37.876;2023-12-20T13:26:12;2.92;62.61
80824;SHT35;70538;59.122;37.876;2023-12-20T13:28:39;2.93;62.66
80824;SHT35;70538;59.122;37.876;2023-12-20T13:31:10;2.92;62.64
80824;SHT35;70538;59.122;37.876;2023-12-20T13:33:38;2.89;62.66
80824;SHT35;70538;59.122;37.876;2023-12-20T13:36:05;2.92;62.55
80824;SHT35;70538;59.122;37.876;2023-12-20T13:38:34;2.92;62.55
80824;SHT35;70538;59.122;37.876;2023-12-20T13:41:01;2.91;62.63
80824;SHT35;70538;59.122;37.876;2023-12-20T13:43:29;2.89;62.31
80824;SHT35;70538;59.122;37.876;2023-12-20T13:45:56;2.89;62.21
80824;SHT35;70538;59.122;37.876;2023-12-20T13:48:24;2.86;61.80
80824;SHT35;70538;59.122;37.876;2023-12-20T13:50:51;2.86;61.39
80824;SHT35;70538;59.122;37.876;2023-12-20T13:53:19;2.85;61.46
80824;SHT35;70538;59.122;37.876;2023-12-20T13:55:49;2.85;61.75
80824;SHT35;70538;59.122;37.876;2023-12-20T13:58:16;2.83;61.87
80824;SHT35;70538;59.122;37.876;2023-12-20T14:00:44;2.82;61.66
80824;SHT35;70538;59.122;37.876;2023-12-20T14:03:12;2.79;62.22
80824;SHT35;70538;59.122;37.876;2023-12-20T14:05:39;2.78;62.60
80824;SHT35;70538;59.122;37.876;2023-12-20T14:08:07;2.76;62.39
80824;SHT35;70538;59.122;37.876;2023-12-20T14:10:35;2.76;62.25
80824;SHT35;70538;59.122;37.876;2023-12-20T14:13:03;2.76;62.36
80824;SHT35;70538;59.122;37.876;2023-12-20T14:15:31;2.75;62.44
80824;SHT35;70538;59.122;37.876;2023-12-20T14:18:04;2.76;62.50
80824;SHT35;70538;59.122;37.876;2023-12-20T14:20:33;2.74;62.43
80824;SHT35;70538;59.122;37.876;2023-12-20T14:23:03;2.74;62.69
80824;SHT35;70538;59.122;37.876;2023-12-20T14:25:31;2.74;62.64
80824;SHT35;70538;59.122;37.876;2023-12-20T14:28:12;2.72;62.22
80824;SHT35;70538;59.122;37.876;2023-12-20T14:30:41;2.74;62.36
80824;SHT35;70538;59.122;37.876;2023-12-20T14:33:10;2.75;62.52
80824;SHT35;70538;59.122;37.876;2023-12-20T14:35:37;2.72;62.10
80824;SHT35;70538;59.122;37.876;2023-12-20T14:38:05;2.68;62.01
80824;SHT35;70538;59.122;37.876;2023-12-20T14:40:33;2.66;61.78
80824;SHT35;70538;59.122;37.876;2023-12-20T14:43:00;2.65;61.93
80824;SHT35;70538;59.122;37.876;2023-12-20T14:45:31;2.66;62.30
80824;SHT35;70538;59.122;37.876;2023-12-20T14:47:58;2.62;62.49
80824;SHT35;70538;59.122;37.876;2023-12-20T14:50:26;2.62;62.58
80824;SHT35;70538;59.122;37.876;2023-12-20T14:52:53;2.62;62.55
80824;SHT35;70538;59.122;37.876;2023-12-20T14:55:22;2.62;62.60
80824;SHT35;70538;59.122;37.876;2023-12-20T14:57:49;2.65;62.35
80824;SHT35;70538;59.122;37.876;2023-12-20T15:00:17;2.66;62.27
80824;SHT35;70538;59.122;37.876;2023-12-20T15:02:46;2.65;62.29
80824;SHT35;70538;59.122;37.876;2023-12-20T15:05:13;2.62;62.45
80824;SHT35;70538;59.122;37.876;2023-12-20T15:07:42;2.64;62.03
80824;SHT35;70538;59.122;37.876;2023-12-20T15:10:09;2.64;62.15
80824;SHT35;70538;59.122;37.876;2023-12-20T15:12:38;2.64;62.00
80824;SHT35;70538;59.122;37.876;2023-12-20T15:15:06;2.64;62.11
80824;SHT35;70538;59.122;37.876;2023-12-20T15:17:33;2.64;62.25
80824;SHT35;70538;59.122;37.876;2023-12-20T15:20:03;2.64;62.18
80824;SHT35;70538;59.122;37.876;2023-12-20T15:22:32;2.62;61.88
80824;SHT35;70538;59.122;37.876;2023-12-20T15:25:01;2.64;61.70
80824;SHT35;70538;59.122;37.876;2023-12-20T15:27:29;2.65;61.82
80824;SHT35;70538;59.122;37.876;2023-12-20T15:29:56;2.62;62.03
80824;SHT35;70538;59.122;37.876;2023-12-20T15:32:24;2.64;62.07
80824;SHT35;70538;59.122;37.876;2023-12-20T15:34:51;2.59;62.04
80824;SHT35;70538;59.122;37.876;2023-12-20T15:37:20;2.61;62.08
80824;SHT35;70538;59.122;37.876;2023-12-20T15:39:48;2.61;61.81
80824;SHT35;70538;59.122;37.876;2023-12-20T15:42:18;2.61;61.86